Time;durP1;ratioP1;P1;durP2;ratioP2;P2;SDS_P1;SDS_P2;PMS_P1;PMS_P2;Temp;Humidity;BMP_temperature;BMP_pressure;BME280_temperature;BME280_humidity;BME280_pressure;Samples;Min_cycle;Max_cycle;Signal;HPM_P1;HPM_P2
2021/07/23 00:00:56;;;;;;;21.95;14.32;;;12.60;99.90;;;;;;4187259;28;20036;-81
2021/07/23 00:02:57;;;;;;;24.05;15.27;;;12.50;99.90;;;;;;4191671;28;20396;-81
2021/07/23 00:04:58;;;;;;;21.00;13.90;;;12.50;99.90;;;;;;4204333;28;20421;-80
2021/07/23 00:06:59;;;;;;;26.52;15.70;;;12.50;99.90;;;;;;4184540;28;20082;-80
2021/07/23 00:08:59;;;;;;;22.00;13.95;;;12.50;99.90;;;;;;4194681;28;20028;-80
2021/07/23 00:11:00;;;;;;;19.17;13.60;;;12.40;99.90;;;;;;4210601;28;20017;-79
2021/07/23 00:13:01;;;;;;;20.95;14.23;;;12.40;99.90;;;;;;4203412;28;20039;-81
2021/07/23 00:15:02;;;;;;;18.58;13.68;;;12.30;99.90;;;;;;4208882;28;20074;-78
2021/07/23 00:17:03;;;;;;;22.55;13.38;;;12.30;99.90;;;;;;4188478;28;20429;-81
2021/07/23 00:19:04;;;;;;;20.60;13.95;;;12.30;99.90;;;;;;4201582;28;20029;-80
2021/07/23 00:21:05;;;;;;;21.75;14.90;;;12.20;99.90;;;;;;4190982;28;20076;-78
2021/07/23 00:23:05;;;;;;;21.27;14.05;;;12.20;99.90;;;;;;4183845;28;20044;-80
2021/07/23 00:25:07;;;;;;;18.70;13.70;;;12.20;99.90;;;;;;4207615;28;20033;-81
2021/07/23 00:27:07;;;;;;;23.65;15.70;;;12.20;99.90;;;;;;4192491;28;20071;-81
2021/07/23 00:29:08;;;;;;;20.20;13.20;;;12.30;99.90;;;;;;4210975;28;20032;-80
2021/07/23 00:31:08;;;;;;;20.50;14.25;;;12.30;99.90;;;;;;4192255;28;20036;-81
2021/07/23 00:33:09;;;;;;;20.30;14.02;;;12.20;99.90;;;;;;4211576;28;20024;-82
2021/07/23 00:35:10;;;;;;;19.77;13.95;;;12.20;99.90;;;;;;4186866;28;20034;-82
2021/07/23 00:37:11;;;;;;;20.70;14.52;;;12.20;99.90;;;;;;4210438;28;20039;-82
2021/07/23 00:39:12;;;;;;;22.95;14.57;;;12.10;99.90;;;;;;4186598;28;20044;-81
2021/07/23 00:41:12;;;;;;;23.70;14.88;;;12.20;99.90;;;;;;4207088;28;20379;-81
2021/07/23 00:43:13;;;;;;;24.15;16.00;;;12.30;99.90;;;;;;4211108;28;20031;-81
2021/07/23 00:45:14;;;;;;;26.48;16.25;;;12.20;99.90;;;;;;4211787;28;20394;-81
2021/07/23 00:47:20;;;;;;;22.23;14.45;;;12.30;99.90;;;;;;4194077;28;20034;-81
2021/07/23 00:49:21;;;;;;;21.95;15.93;;;12.20;99.90;;;;;;4193905;28;20073;-82
2021/07/23 00:51:23;;;;;;;23.85;15.82;;;12.10;99.90;;;;;;4212008;28;20099;-82
2021/07/23 00:53:24;;;;;;;23.60;15.93;;;12.20;99.90;;;;;;4208109;28;20032;-82
2021/07/23 00:55:25;;;;;;;25.73;16.13;;;12.10;99.90;;;;;;4207185;28;20042;-82
2021/07/23 00:57:32;;;;;;;23.00;15.50;;;12.40;99.90;;;;;;4190038;28;20021;-82
2021/07/23 00:59:33;;;;;;;27.70;15.63;;;11.90;99.90;;;;;;4200738;28;20431;-82
2021/07/23 01:01:33;;;;;;;25.33;16.88;;;11.90;99.90;;;;;;4190414;28;20033;-82
2021/07/23 01:03:36;;;;;;;28.88;16.38;;;11.90;99.90;;;;;;4188160;28;20040;-82
2021/07/23 01:05:37;;;;;;;25.40;16.52;;;11.80;99.90;;;;;;4210010;28;20035;-81
2021/07/23 01:07:40;;;;;;;26.15;15.73;;;12.00;99.90;;;;;;4212147;28;20055;-82
2021/07/23 01:09:40;;;;;;;28.85;16.45;;;11.90;99.90;;;;;;4193181;28;20064;-82
2021/07/23 01:11:42;;;;;;;26.20;16.38;;;11.80;99.90;;;;;;4212809;28;20028;-82
2021/07/23 01:13:44;;;;;;;24.65;16.27;;;11.80;99.90;;;;;;4211976;28;20032;-81
2021/07/23 01:15:45;;;;;;;25.30;16.33;;;11.70;99.90;;;;;;4209481;28;20032;-79
2021/07/23 01:17:46;;;;;;;23.15;15.80;;;11.70;99.90;;;;;;4194475;28;20043;-82
2021/07/23 01:19:59;;;;;;;26.63;16.35;;;11.70;99.90;;;;;;4191490;28;20033;-82
2021/07/23 01:22:01;;;;;;;;;;;11.60;99.90;;;;;;4194517;28;20043;-83
2021/07/23 01:24:02;;;;;;;26.25;16.60;;;11.70;99.90;;;;;;4211252;28;19908;-81
2021/07/23 01:26:04;;;;;;;28.40;18.02;;;11.70;99.90;;;;;;4193251;28;20040;-82
2021/07/23 01:28:06;;;;;;;25.02;15.43;;;11.60;99.90;;;;;;4193198;28;20029;-81
2021/07/23 01:30:10;;;;;;;27.85;16.58;;;11.60;99.90;;;;;;4188827;28;20459;-82
2021/07/23 01:32:11;;;;;;;29.63;15.23;;;11.60;99.90;;;;;;4195880;28;20021;-82
2021/07/23 01:34:11;;;;;;;28.05;16.65;;;11.60;99.90;;;;;;4191965;28;20090;-82
2021/07/23 01:36:12;;;;;;;30.20;17.50;;;11.60;99.90;;;;;;4193484;28;20472;-82
2021/07/23 01:38:17;;;;;;;26.35;16.17;;;11.70;99.90;;;;;;4190796;28;20423;-82
2021/07/23 01:40:17;;;;;;;27.25;16.95;;;11.70;99.90;;;;;;4193420;28;20111;-82
2021/07/23 01:42:19;;;;;;;30.45;17.15;;;11.60;99.90;;;;;;4196229;28;20039;-82
2021/07/23 01:44:20;;;;;;;28.77;17.35;;;11.50;99.90;;;;;;4195454;28;20356;-81
2021/07/23 01:46:20;;;;;;;26.00;15.43;;;11.40;99.90;;;;;;4196035;28;20103;-82
2021/07/23 01:48:21;;;;;;;29.50;17.42;;;11.40;99.90;;;;;;4183672;28;20051;-81
2021/07/23 01:50:22;;;;;;;27.40;16.90;;;11.50;99.90;;;;;;4191093;28;20029;-81
2021/07/23 01:52:22;;;;;;;29.48;17.10;;;11.50;99.90;;;;;;4192681;28;20101;-81
2021/07/23 01:54:23;;;;;;;26.23;18.02;;;11.50;99.90;;;;;;4190606;28;20092;-81
2021/07/23 01:56:24;;;;;;;36.53;17.38;;;11.50;99.90;;;;;;4184691;28;20029;-81
2021/07/23 01:58:26;;;;;;;30.10;16.20;;;11.50;99.90;;;;;;4197952;28;20025;-82
2021/07/23 02:00:26;;;;;;;27.45;15.70;;;11.50;99.90;;;;;;4194175;28;20044;-81
2021/07/23 02:02:29;;;;;;;32.10;18.35;;;11.40;99.90;;;;;;4186155;28;20035;-81
2021/07/23 02:04:30;;;;;;;31.58;17.02;;;11.50;99.90;;;;;;4193072;28;20058;-81
2021/07/23 02:06:31;;;;;;;25.35;16.35;;;11.50;99.90;;;;;;4196916;28;20449;-82
2021/07/23 02:08:31;;;;;;;29.92;18.20;;;11.50;99.90;;;;;;4182343;28;20063;-80
2021/07/23 02:10:32;;;;;;;27.02;15.98;;;11.50;99.90;;;;;;4192696;28;20035;-81
2021/07/23 02:12:33;;;;;;;30.45;17.85;;;11.50;99.90;;;;;;4190203;28;20029;-81
2021/07/23 02:14:34;;;;;;;26.33;15.60;;;11.50;99.90;;;;;;4193309;28;20031;-80
2021/07/23 02:16:35;;;;;;;32.45;17.85;;;11.50;99.90;;;;;;4187851;28;20476;-81
2021/07/23 02:18:36;;;;;;;30.27;17.67;;;11.50;99.90;;;;;;4186921;28;20041;-81
2021/07/23 02:20:37;;;;;;;29.02;18.38;;;11.50;99.90;;;;;;4204484;28;20044;-80
2021/07/23 02:22:38;;;;;;;32.50;18.27;;;11.60;99.90;;;;;;4212090;28;20476;-81
2021/07/23 02:24:39;;;;;;;32.13;17.63;;;11.50;99.90;;;;;;4197240;28;20036;-81
2021/07/23 02:26:40;;;;;;;28.02;16.98;;;11.50;99.90;;;;;;4215361;28;20028;-81
2021/07/23 02:28:40;;;;;;;33.15;18.85;;;11.50;99.90;;;;;;4197675;28;20059;-81
2021/07/23 02:30:41;;;;;;;28.05;16.88;;;11.50;99.90;;;;;;4210263;28;20085;-81
2021/07/23 02:32:41;;;;;;;31.98;17.48;;;11.40;99.90;;;;;;4214981;28;20456;-81
2021/07/23 02:34:42;;;;;;;33.17;17.58;;;11.40;99.90;;;;;;4209407;28;20088;-81
2021/07/23 02:36:43;;;;;;;30.00;17.65;;;11.40;99.90;;;;;;4215071;28;20027;-81
2021/07/23 02:38:44;;;;;;;31.30;17.90;;;11.30;99.90;;;;;;4193262;28;20476;-81
2021/07/23 02:40:44;;;;;;;32.20;17.70;;;11.30;99.90;;;;;;4207733;28;20032;-81
2021/07/23 02:42:45;;;;;;;26.30;16.13;;;11.30;99.90;;;;;;4215001;28;20028;-81
2021/07/23 02:44:46;;;;;;;29.70;17.20;;;11.30;99.90;;;;;;4214779;28;20495;-82
2021/07/23 02:46:46;;;;;;;30.77;18.00;;;11.30;99.90;;;;;;4197027;28;20028;-80
2021/07/23 02:48:47;;;;;;;31.20;18.08;;;11.30;99.90;;;;;;4192114;28;20060;-81
2021/07/23 02:50:48;;;;;;;33.95;17.75;;;11.30;99.90;;;;;;4187882;28;20439;-80
2021/07/23 02:52:49;;;;;;;36.72;18.80;;;11.30;99.90;;;;;;4186008;28;20044;-81
2021/07/23 02:54:49;;;;;;;35.45;17.95;;;11.30;99.90;;;;;;4214523;28;20435;-81
2021/07/23 02:56:50;;;;;;;34.20;18.38;;;11.30;99.90;;;;;;4195812;28;20031;-80
2021/07/23 02:58:50;;;;;;;31.75;17.98;;;11.30;99.90;;;;;;4196388;28;20356;-81
2021/07/23 03:00:51;;;;;;;35.45;18.73;;;11.40;99.90;;;;;;4207602;28;20046;-81
2021/07/23 03:02:53;;;;;;;27.80;16.10;;;11.40;99.90;;;;;;4191895;28;20427;-82
2021/07/23 03:04:53;;;;;;;40.45;18.63;;;11.40;99.90;;;;;;4214734;28;20112;-82
2021/07/23 03:06:54;;;;;;;34.05;17.63;;;11.40;99.90;;;;;;4203296;28;20762;-81
2021/07/23 03:08:55;;;;;;;30.75;17.08;;;11.50;99.90;;;;;;4205882;28;20082;-82
2021/07/23 03:10:56;;;;;;;35.92;19.02;;;11.50;99.90;;;;;;4193616;28;20112;-81
2021/07/23 03:12:56;;;;;;;32.28;17.30;;;11.50;99.90;;;;;;4195923;28;20041;-81
2021/07/23 03:14:57;;;;;;;34.15;17.77;;;11.50;99.90;;;;;;4214107;28;20032;-80
2021/07/23 03:16:58;;;;;;;36.20;17.40;;;11.40;99.90;;;;;;4212955;28;20074;-81
2021/07/23 03:18:58;;;;;;;33.05;19.15;;;11.40;99.90;;;;;;4196237;28;20033;-81
2021/07/23 03:20:59;;;;;;;36.75;18.98;;;11.40;99.90;;;;;;4203641;28;20036;-81
2021/07/23 03:23:03;;;;;;;31.98;17.48;;;11.40;99.90;;;;;;4195212;28;20437;-81
2021/07/23 03:25:04;;;;;;;36.97;18.38;;;11.30;99.90;;;;;;4213964;28;20031;-81
2021/07/23 03:27:05;;;;;;;34.88;18.05;;;11.30;99.90;;;;;;4192813;28;20163;-81
2021/07/23 03:29:07;;;;;;;34.15;19.27;;;11.30;99.90;;;;;;4213827;28;20028;-83
2021/07/23 03:31:12;;;;;;;37.35;18.08;;;11.20;99.90;;;;;;4214055;28;20047;-80
2021/07/23 03:33:13;;;;;;;30.02;17.17;;;11.20;99.90;;;;;;4212584;28;20028;-80
2021/07/23 03:35:14;;;;;;;37.92;19.38;;;11.20;99.90;;;;;;4195437;28;20126;-81
2021/07/23 03:37:14;;;;;;;30.70;18.65;;;11.20;99.90;;;;;;4212184;28;20025;-81
2021/07/23 03:39:15;;;;;;;33.70;17.63;;;11.10;99.90;;;;;;4214118;28;20077;-81
2021/07/23 03:41:16;;;;;;;30.67;19.02;;;11.10;99.90;;;;;;4194536;28;20025;-81
2021/07/23 03:43:18;;;;;;;33.80;16.90;;;11.10;99.90;;;;;;4182335;28;20045;-81
2021/07/23 03:45:19;;;;;;;35.33;17.98;;;11.10;99.90;;;;;;4210008;28;20519;-81
2021/07/23 03:47:20;;;;;;;36.85;19.50;;;11.10;99.90;;;;;;4214024;28;20038;-81
2021/07/23 03:49:21;;;;;;;35.50;18.95;;;11.10;99.90;;;;;;4190399;28;20060;-81
2021/07/23 03:51:21;;;;;;;34.78;19.67;;;11.20;99.90;;;;;;4180789;28;20049;-80
2021/07/23 03:53:22;;;;;;;34.53;20.77;;;11.20;99.90;;;;;;4195186;28;20529;-81
2021/07/23 03:55:23;;;;;;;38.33;19.98;;;11.20;99.90;;;;;;4195212;28;20083;-81
2021/07/23 03:57:24;;;;;;;44.53;19.52;;;11.30;99.90;;;;;;4197526;28;20028;-81
2021/07/23 03:59:24;;;;;;;44.35;21.52;;;11.30;99.90;;;;;;4214068;28;20482;-80
2021/07/23 04:01:26;;;;;;;41.72;20.33;;;11.30;99.90;;;;;;4185298;28;20036;-81
2021/07/23 04:03:26;;;;;;;43.05;21.48;;;11.30;99.90;;;;;;4195381;28;20487;-79
2021/07/23 04:05:27;;;;;;;44.88;21.40;;;11.30;99.90;;;;;;4195554;28;20036;-80
2021/07/23 04:07:32;;;;;;;40.72;21.45;;;11.40;99.90;;;;;;4202818;28;20039;-81
2021/07/23 04:09:32;;;;;;;39.42;20.83;;;11.40;99.90;;;;;;4200296;28;20562;-81
2021/07/23 04:11:46;;;;;;;45.78;22.13;;;11.40;99.90;;;;;;4198176;28;20040;-80
2021/07/23 04:13:47;;;;;;;41.38;22.27;;;11.40;99.90;;;;;;4213397;28;20063;-81
2021/07/23 04:15:48;;;;;;;41.15;20.58;;;11.40;99.90;;;;;;4193644;28;20464;-78
2021/07/23 04:17:49;;;;;;;40.78;21.75;;;11.40;99.90;;;;;;4212002;28;20032;-81
2021/07/23 04:19:50;;;;;;;46.20;19.63;;;11.40;99.90;;;;;;4212199;28;20028;-80
2021/07/23 04:21:50;;;;;;;43.80;22.25;;;11.40;99.90;;;;;;4203807;28;20115;-81
2021/07/23 04:23:51;;;;;;;49.20;22.92;;;11.40;99.90;;;;;;4204422;28;20036;-81
2021/07/23 04:25:51;;;;;;;38.95;20.35;;;11.50;99.90;;;;;;4200523;28;20036;-80
2021/07/23 04:27:52;;;;;;;44.08;21.10;;;11.50;99.90;;;;;;4202120;28;20060;-81
2021/07/23 04:29:53;;;;;;;38.88;20.63;;;11.60;99.90;;;;;;4212538;28;20119;-80
2021/07/23 04:31:53;;;;;;;40.17;20.98;;;11.60;99.90;;;;;;4209381;28;20051;-81
2021/07/23 04:33:58;;;;;;;44.78;21.05;;;11.60;99.90;;;;;;4195143;28;20044;-81
2021/07/23 04:35:59;;;;;;;35.88;20.33;;;11.60;99.90;;;;;;4187205;28;20037;-81
2021/07/23 04:38:00;;;;;;;38.13;20.27;;;11.60;99.90;;;;;;4191421;28;20033;-81
2021/07/23 04:40:05;;;;;;;39.58;20.10;;;11.60;99.90;;;;;;4207014;28;20071;-81
2021/07/23 04:42:06;;;;;;;40.08;21.30;;;11.70;99.90;;;;;;4208376;28;20032;-81
2021/07/23 04:44:07;;;;;;;42.75;22.88;;;11.70;99.90;;;;;;4194648;28;20028;-81
2021/07/23 04:46:09;;;;;;;42.05;22.10;;;11.80;99.90;;;;;;4212611;28;20025;-80
2021/07/23 04:48:09;;;;;;;40.90;21.15;;;11.90;99.90;;;;;;4188532;28;20044;-81
2021/07/23 04:50:10;;;;;;;40.92;19.17;;;11.90;99.90;;;;;;4207134;28;20498;-81
2021/07/23 04:52:11;;;;;;;36.25;20.13;;;12.00;99.90;;;;;;4194616;28;20037;-81
2021/07/23 04:54:11;;;;;;;39.15;22.33;;;12.10;99.90;;;;;;4206569;28;20059;-81
2021/07/23 04:56:12;;;;;;;40.42;20.80;;;12.30;99.90;;;;;;4200439;28;20039;-80
2021/07/23 04:58:14;;;;;;;38.97;20.75;;;12.50;99.90;;;;;;4191448;28;20111;-79
2021/07/23 05:00:15;;;;;;;34.13;20.13;;;12.70;99.90;;;;;;4180444;28;20075;-81
2021/07/23 05:02:15;;;;;;;31.02;20.08;;;12.80;99.90;;;;;;4206123;28;20036;-81
2021/07/23 05:04:16;;;;;;;30.00;19.63;;;13.00;99.90;;;;;;4194901;28;20043;-82
2021/07/23 05:06:17;;;;;;;32.00;21.27;;;13.20;99.90;;;;;;4188043;28;20033;-82
2021/07/23 05:08:18;;;;;;;31.55;20.63;;;13.30;99.90;;;;;;4192037;28;20510;-82
2021/07/23 05:10:19;;;;;;;32.70;21.73;;;13.50;99.90;;;;;;4208785;28;20028;-81
2021/07/23 05:12:20;;;;;;;30.63;20.55;;;13.60;99.90;;;;;;4209521;28;20366;-81
2021/07/23 05:14:21;;;;;;;28.23;19.42;;;13.80;99.90;;;;;;4212633;28;20413;-81
2021/07/23 05:16:22;;;;;;;30.02;21.05;;;13.90;99.90;;;;;;4212475;28;20111;-81
2021/07/23 05:18:26;;;;;;;25.48;17.80;;;14.10;99.90;;;;;;4191314;28;20506;-81
2021/07/23 05:20:26;;;;;;;28.58;19.85;;;14.10;99.90;;;;;;4206399;28;20406;-80
2021/07/23 05:22:28;;;;;;;24.02;17.25;;;14.00;99.90;;;;;;4199909;28;20032;-82
2021/07/23 05:24:30;;;;;;;24.40;17.85;;;14.00;99.90;;;;;;4207192;28;20081;-81
2021/07/23 05:26:37;;;;;;;22.02;17.38;;;14.10;99.90;;;;;;4192063;28;20100;-82
2021/07/23 05:28:38;;;;;;;30.33;19.20;;;14.10;99.90;;;;;;4210403;28;20030;-82
2021/07/23 05:30:39;;;;;;;25.95;19.10;;;14.10;99.90;;;;;;4194418;28;20029;-81
2021/07/23 05:32:40;;;;;;;21.35;17.10;;;14.20;99.90;;;;;;4213796;28;20097;-82
2021/07/23 05:34:41;;;;;;;27.77;17.17;;;14.20;99.90;;;;;;4193518;28;20031;-81
2021/07/23 05:36:42;;;;;;;18.85;15.45;;;14.20;99.90;;;;;;4212155;28;20024;-81
2021/07/23 05:38:42;;;;;;;24.48;17.73;;;14.30;99.90;;;;;;4189593;28;20032;-81
2021/07/23 05:40:44;;;;;;;21.63;16.77;;;14.40;99.90;;;;;;4193144;28;20561;-82
2021/07/23 05:42:45;;;;;;;22.63;16.65;;;14.50;99.90;;;;;;4213183;28;20483;-81
2021/07/23 05:44:45;;;;;;;21.50;16.73;;;14.50;99.90;;;;;;4213140;28;20110;-81
2021/07/23 05:46:46;;;;;;;18.40;14.57;;;14.50;99.90;;;;;;4192321;28;20073;-82
2021/07/23 05:48:47;;;;;;;21.52;16.80;;;14.60;99.90;;;;;;4195503;28;20035;-81
2021/07/23 05:50:47;;;;;;;19.35;15.88;;;14.70;99.90;;;;;;4214324;28;20024;-82
2021/07/23 05:52:48;;;;;;;23.25;16.10;;;14.80;99.90;;;;;;4190513;28;20041;-81
2021/07/23 05:54:49;;;;;;;25.33;15.55;;;14.90;99.90;;;;;;4212961;28;20021;-82
2021/07/23 05:56:49;;;;;;;17.48;15.43;;;15.00;99.90;;;;;;4193814;28;20036;-81
2021/07/23 05:58:50;;;;;;;21.33;16.30;;;15.10;99.90;;;;;;4193945;28;20108;-82
2021/07/23 06:00:51;;;;;;;21.70;15.00;;;15.20;99.90;;;;;;4197352;28;20029;-82
2021/07/23 06:02:52;;;;;;;20.20;15.57;;;15.30;99.90;;;;;;4193738;28;20067;-81
2021/07/23 06:04:53;;;;;;;18.67;14.35;;;15.30;99.90;;;;;;4197136;28;20421;-81
2021/07/23 06:06:54;;;;;;;21.50;15.38;;;15.40;99.90;;;;;;4188785;28;20057;-81
2021/07/23 06:08:54;;;;;;;22.98;15.00;;;15.40;99.90;;;;;;4215351;28;20081;-81
2021/07/23 06:10:55;;;;;;;16.63;13.70;;;15.40;99.90;;;;;;4212682;28;20028;-81
2021/07/23 06:12:56;;;;;;;20.73;14.20;;;15.50;99.90;;;;;;4211047;28;20140;-81
2021/07/23 06:14:56;;;;;;;18.00;14.70;;;15.60;99.90;;;;;;4191800;28;20039;-81
2021/07/23 06:16:58;;;;;;;20.33;14.90;;;15.60;99.90;;;;;;4216001;28;20120;-81
2021/07/23 06:19:00;;;;;;;21.55;14.63;;;15.60;99.90;;;;;;4214338;28;20024;-80
2021/07/23 06:21:00;;;;;;;24.63;14.57;;;15.70;99.90;;;;;;4194214;28;20043;-81
2021/07/23 06:23:01;;;;;;;19.92;14.18;;;15.80;99.90;;;;;;4214701;28;20099;-79
2021/07/23 06:25:02;;;;;;;18.60;13.98;;;15.80;99.90;;;;;;4194191;28;20399;-81
2021/07/23 06:27:03;;;;;;;19.00;14.23;;;15.80;99.90;;;;;;4192323;28;20107;-81
2021/07/23 06:29:04;;;;;;;24.27;14.95;;;16.00;99.90;;;;;;4211818;28;20499;-81
2021/07/23 06:31:06;;;;;;;20.83;14.65;;;16.00;99.90;;;;;;4189885;28;20158;-79
2021/07/23 06:33:06;;;;;;;19.13;13.27;;;16.10;99.90;;;;;;4191519;28;20033;-81
2021/07/23 06:35:07;;;;;;;18.90;13.98;;;16.20;99.90;;;;;;4211386;28;20502;-82
2021/07/23 06:37:08;;;;;;;19.45;14.55;;;16.30;99.90;;;;;;4214971;28;20263;-81
2021/07/23 06:39:08;;;;;;;21.73;14.85;;;16.40;99.90;;;;;;4214106;28;20509;-82
2021/07/23 06:41:09;;;;;;;20.52;13.93;;;16.40;99.90;;;;;;4213285;28;20494;-81
2021/07/23 06:43:12;;;;;;;16.58;12.93;;;16.50;99.90;;;;;;4190070;28;20182;-81
2021/07/23 06:45:13;;;;;;;22.25;16.10;;;16.70;99.90;;;;;;4186335;28;20036;-81
2021/07/23 06:47:14;;;;;;;19.02;13.35;;;16.80;99.90;;;;;;4203811;28;20060;-82
2021/07/23 06:49:14;;;;;;;21.17;14.10;;;16.90;99.90;;;;;;4195028;28;20188;-82
2021/07/23 06:51:15;;;;;;;24.35;13.43;;;16.90;99.90;;;;;;4215040;28;20068;-83
2021/07/23 06:53:16;;;;;;;20.17;13.52;;;17.10;99.90;;;;;;4201323;28;20043;-82
2021/07/23 06:55:17;;;;;;;20.85;14.50;;;17.10;99.90;;;;;;4214554;28;20024;-80
2021/07/23 06:57:19;;;;;;;18.10;12.75;;;17.00;99.90;;;;;;4204565;28;20156;-82
2021/07/23 06:59:20;;;;;;;22.02;14.73;;;17.20;99.90;;;;;;4210684;28;20047;-83
2021/07/23 07:01:20;;;;;;;15.05;12.70;;;17.30;99.90;;;;;;4214868;28;20036;-82
2021/07/23 07:03:21;;;;;;;13.45;11.73;;;17.20;99.90;;;;;;4212604;28;20032;-82
2021/07/23 07:05:24;;;;;;;18.45;14.25;;;17.30;99.90;;;;;;4194781;28;20136;-81
2021/07/23 07:07:25;;;;;;;15.65;13.93;;;17.20;99.90;;;;;;4203034;28;20032;-81
2021/07/23 07:09:27;;;;;;;14.50;12.52;;;17.20;99.90;;;;;;4192852;28;20455;-79
2021/07/23 07:11:28;;;;;;;19.67;14.30;;;17.20;99.90;;;;;;4184875;28;20110;-82
2021/07/23 07:13:29;;;;;;;15.82;13.57;;;17.40;99.90;;;;;;4193924;28;20048;-83
2021/07/23 07:15:30;;;;;;;14.80;13.20;;;17.40;99.90;;;;;;4214202;28;20035;-82
2021/07/23 07:17:30;;;;;;;14.02;12.50;;;17.50;99.90;;;;;;4212352;28;20455;-82
2021/07/23 07:19:31;;;;;;;16.83;13.20;;;17.50;99.90;;;;;;4207880;28;20032;-80
2021/07/23 07:21:32;;;;;;;17.45;11.93;;;17.50;99.90;;;;;;4213092;28;20093;-83
2021/07/23 07:23:33;;;;;;;17.52;11.55;;;17.50;99.90;;;;;;4206730;28;20125;-82
2021/07/23 07:25:35;;;;;;;18.23;13.02;;;17.60;99.90;;;;;;4176904;28;20106;-81
2021/07/23 07:27:36;;;;;;;14.52;12.80;;;17.80;99.90;;;;;;4213001;28;20036;-82
2021/07/23 07:29:36;;;;;;;13.20;11.05;;;17.80;99.90;;;;;;4193418;28;20121;-79
2021/07/23 07:31:38;;;;;;;11.63;10.48;;;17.90;99.90;;;;;;4214811;28;20020;-81
2021/07/23 07:33:38;;;;;;;14.65;12.52;;;18.00;99.90;;;;;;4195112;28;20517;-80
2021/07/23 07:35:43;;;;;;;13.65;12.20;;;18.10;99.90;;;;;;4205312;28;20039;-81
2021/07/23 07:37:44;;;;;;;15.50;12.52;;;18.10;99.90;;;;;;4201677;28;20115;-81
2021/07/23 07:39:44;;;;;;;14.27;12.02;;;18.10;99.90;;;;;;4185589;28;20349;-79
2021/07/23 07:41:45;;;;;;;16.95;12.18;;;18.20;99.90;;;;;;4207411;28;20036;-80
2021/07/23 07:43:46;;;;;;;13.38;10.82;;;18.10;99.90;;;;;;4209092;28;20060;-81
2021/07/23 07:45:47;;;;;;;17.85;12.25;;;18.00;99.90;;;;;;4206621;28;20059;-80
2021/07/23 07:47:48;;;;;;;14.80;11.48;;;18.10;99.90;;;;;;4201551;28;20036;-81
2021/07/23 07:49:49;;;;;;;12.30;11.00;;;18.20;99.90;;;;;;4212991;28;20032;-81
2021/07/23 07:51:49;;;;;;;16.80;12.23;;;18.30;99.90;;;;;;4195042;28;20048;-82
2021/07/23 07:53:50;;;;;;;11.30;10.20;;;18.40;99.90;;;;;;4212042;28;20123;-82
2021/07/23 07:55:51;;;;;;;12.35;9.73;;;18.50;99.90;;;;;;4191126;28;20118;-82
2021/07/23 07:57:52;;;;;;;11.52;10.25;;;18.40;99.90;;;;;;4194897;28;20116;-81
2021/07/23 07:59:52;;;;;;;11.15;9.27;;;18.30;99.90;;;;;;4193995;28;20036;-81
2021/07/23 08:01:53;;;;;;;15.55;10.30;;;18.30;99.90;;;;;;4213495;28;20028;-81
2021/07/23 08:03:53;;;;;;;11.13;9.07;;;18.40;99.90;;;;;;4213461;28;20064;-81
2021/07/23 08:06:01;;;;;;;11.73;9.60;;;18.30;99.90;;;;;;4213490;28;20024;-81
2021/07/23 08:08:03;;;;;;;16.17;10.70;;;18.40;99.90;;;;;;4178979;28;20090;-81
2021/07/23 08:10:05;;;;;;;13.65;10.25;;;18.60;99.90;;;;;;4204389;28;20116;-80
2021/07/23 08:12:06;;;;;;;10.23;9.18;;;18.70;99.90;;;;;;4189426;28;20043;-81
2021/07/23 08:14:07;;;;;;;15.40;9.65;;;18.80;99.90;;;;;;4213192;28;20115;-83
2021/07/23 08:16:08;;;;;;;11.25;8.93;;;18.90;99.90;;;;;;4212566;28;20083;-80
2021/07/23 08:18:10;;;;;;;10.88;8.40;;;18.90;99.90;;;;;;4195677;28;20104;-82
2021/07/23 08:20:11;;;;;;;14.70;8.73;;;19.00;99.90;;;;;;4196095;28;20052;-81
2021/07/23 08:22:12;;;;;;;8.95;8.05;;;18.90;99.90;;;;;;4192941;28;20446;-82
2021/07/23 08:24:13;;;;;;;12.00;9.90;;;19.20;99.90;;;;;;4186657;28;20035;-84
2021/07/23 08:26:13;;;;;;;14.77;9.45;;;19.30;99.90;;;;;;4194660;28;20032;-86
2021/07/23 08:28:18;;;;;;;13.25;9.30;;;19.40;99.90;;;;;;4194882;28;20032;-84
2021/07/23 08:30:18;;;;;;;10.90;8.75;;;19.70;99.90;;;;;;4194932;28;20036;-84
2021/07/23 08:32:19;;;;;;;10.23;8.05;;;19.60;99.90;;;;;;4143725;28;20037;-83
2021/07/23 08:34:19;;;;;;;10.20;8.07;;;19.70;99.90;;;;;;4195032;28;20082;-84
2021/07/23 08:36:22;;;;;;;11.63;7.85;;;19.70;99.90;;;;;;4192656;28;20039;-84
2021/07/23 08:38:23;;;;;;;9.32;7.68;;;19.70;99.90;;;;;;4195344;28;20128;-85
2021/07/23 08:40:23;;;;;;;9.20;7.45;;;19.60;99.90;;;;;;4192192;28;20032;-84
2021/07/23 08:42:25;;;;;;;10.93;7.70;;;19.60;99.90;;;;;;4196269;28;20040;-83
2021/07/23 08:44:27;;;;;;;9.88;8.23;;;19.70;99.90;;;;;;4194833;28;20032;-83
2021/07/23 08:46:28;;;;;;;8.05;7.25;;;19.70;99.90;;;;;;4196319;28;20033;-83
2021/07/23 08:48:29;;;;;;;11.23;6.85;;;19.80;99.90;;;;;;4188501;28;20162;-81
2021/07/23 08:50:30;;;;;;;11.23;7.32;;;20.10;99.90;;;;;;4189465;28;20032;-82
2021/07/23 08:52:38;;;;;;;10.55;7.93;;;20.10;99.90;;;;;;4194709;28;20098;-83
2021/07/23 08:54:39;;;;;;;10.50;7.40;;;20.20;99.90;;;;;;4194762;28;20032;-83
2021/07/23 08:56:49;;;;;;;8.95;7.20;;;20.40;99.90;;;;;;4196257;28;20024;-85
2021/07/23 08:58:52;;;;;;;9.52;7.43;;;20.30;99.90;;;;;;4195447;28;20037;-82
2021/07/23 09:00:58;;;;;;;11.15;8.63;;;20.00;99.90;;;;;;4193658;28;20028;-83
2021/07/23 09:03:04;;;;;;;12.00;8.65;;;19.90;99.90;;;;;;4195804;28;20097;-82
2021/07/23 09:05:13;;;;;;;11.30;9.48;;;20.20;99.90;;;;;;4195982;28;20098;-82
2021/07/23 09:07:17;;;;;;;11.07;7.43;;;20.40;99.90;;;;;;4192623;28;20028;-82
2021/07/23 09:09:20;;;;;;;10.02;8.00;;;20.80;99.90;;;;;;4193270;28;20056;-82
2021/07/23 09:11:30;;;;;;;11.85;8.23;;;20.80;99.90;;;;;;4195694;28;20524;-83
2021/07/23 09:13:33;;;;;;;12.23;7.85;;;21.00;99.90;;;;;;4184360;28;20576;-82
2021/07/23 09:15:42;;;;;;;11.15;9.25;;;20.80;99.90;;;;;;4192597;28;20029;-82
2021/07/23 09:17:43;;;;;;;12.18;8.85;;;20.70;99.90;;;;;;4187123;28;20047;-82
2021/07/23 09:19:43;;;;;;;10.82;8.93;;;20.70;99.90;;;;;;4195167;28;20112;-82
2021/07/23 09:21:45;;;;;;;12.10;8.65;;;20.80;99.90;;;;;;4189840;28;20087;-83
2021/07/23 09:23:48;;;;;;;11.15;8.88;;;20.70;99.90;;;;;;4211745;28;20375;-83
2021/07/23 09:25:49;;;;;;;11.90;7.65;;;20.70;99.90;;;;;;4210163;28;20025;-83
2021/07/23 09:27:51;;;;;;;9.02;7.57;;;20.70;99.90;;;;;;4212395;28;20416;-84
2021/07/23 09:29:52;;;;;;;10.33;7.87;;;20.60;99.90;;;;;;4211834;28;20118;-84
2021/07/23 09:32:09;;;;;;;9.98;6.93;;;20.60;99.90;;;;;;4209164;28;20078;-84
2021/07/23 09:34:10;;;;;;;10.88;7.80;;;20.80;99.90;;;;;;4210337;28;20477;-85
2021/07/23 09:36:12;;;;;;;10.15;7.88;;;21.10;99.90;;;;;;4190389;28;20072;-82
2021/07/23 09:38:13;;;;;;;8.77;7.53;;;21.10;99.90;;;;;;4215952;28;20101;-86
2021/07/23 09:40:14;;;;;;;11.57;8.43;;;21.30;99.90;;;;;;4210889;28;20063;-84
2021/07/23 09:42:21;;;;;;;10.48;7.28;;;21.50;99.90;;;;;;4192215;28;20043;-86
2021/07/23 09:44:25;;;;;;;9.55;7.97;;;21.90;99.90;;;;;;4209609;28;20039;-83
2021/07/23 09:46:28;;;;;;;12.48;7.68;;;22.10;99.90;;;;;;4191006;28;20043;-85
2021/07/23 09:48:29;;;;;;;9.57;7.03;;;22.10;99.90;;;;;;4190719;28;20047;-82
2021/07/23 09:50:30;;;;;;;8.02;6.50;;;22.30;99.90;;;;;;4212024;28;20128;-83
2021/07/23 09:52:33;;;;;;;10.68;7.32;;;22.00;99.90;;;;;;4191539;28;20078;-79
2021/07/23 09:54:36;;;;;;;8.95;7.22;;;21.80;99.90;;;;;;4193423;28;20041;-83
2021/07/23 09:56:38;;;;;;;15.02;7.35;;;21.80;99.90;;;;;;4193779;28;20376;-83
2021/07/23 09:58:44;;;;;;;10.25;7.07;;;21.90;99.90;;;;;;4193084;28;20032;-85
2021/07/23 10:00:50;;;;;;;10.00;7.95;;;21.40;99.90;;;;;;4194011;28;20095;-82
2021/07/23 10:02:53;;;;;;;11.05;8.13;;;21.10;99.90;;;;;;4213674;28;20452;-84
2021/07/23 10:05:03;;;;;;;;;;;20.80;99.90;;;;;;4213447;28;20534;-85
2021/07/23 10:07:22;;;;;;;12.60;9.23;;;20.60;99.90;;;;;;4194412;28;19951;-86
2021/07/23 10:09:26;;;;;;;9.73;8.25;;;20.80;99.90;;;;;;4208408;28;20024;-83
2021/07/23 10:11:27;;;;;;;11.25;9.07;;;20.60;99.90;;;;;;4201422;28;20024;-85
2021/07/23 10:13:30;;;;;;;11.43;10.20;;;20.20;99.90;;;;;;4194521;28;20029;-85
2021/07/23 10:15:31;;;;;;;;;;;20.30;99.90;;;;;;4202791;28;20032;-83
2021/07/23 10:17:34;;;;;;;11.27;8.23;;;20.40;99.90;;;;;;4194207;28;19916;-84
2021/07/23 10:19:36;;;;;;;12.43;9.32;;;20.60;99.90;;;;;;4197084;28;20032;-84